.
WxDataArchive / Data Records for 2013-04-19
2013-04-18 April 2013 2013-04-20

Data Records for Friday, 19 April 2013

Time	Temp	Chill	HIndex	Humid	Dewpt	 Wind 	HiWind	WindDir	Rain 	Barom 
-----	----	-----	------	-----	-----	------	------	-------	-----	----- 
00:00	58.6	58.6	58.6	96	57.5	0	2	135	0.01	29.549 
00:05	58.7	58.7	58.7	96	57.6	1	3	135	0.10	29.549 
00:10	58.7	58.7	58.7	96	57.6	0	2	135	0.03	29.549 
00:15	58.7	58.7	58.7	96	57.6	0	2	135	0.01	29.542 
00:20	58.7	58.7	58.7	97	57.8	0	2	135	0.00	29.542 
00:25	58.6	58.6	58.6	97	57.7	0	2	135	0.01	29.542 
00:30	58.6	58.6	58.6	97	57.7	0	1	135	0.01	29.534 
00:35	58.6	58.6	58.6	97	57.7	0	2	135	0.00	29.534 
00:40	58.4	58.4	58.4	97	57.5	1	3	135	0.01	29.534 
00:45	58.4	58.4	58.4	97	57.5	1	2	135	0.01	29.516 
00:50	58.4	58.4	58.4	97	57.5	1	3	135	0.00	29.516 
00:55	58.4	58.4	58.4	97	57.5	0	3	135	0.00	29.516 
01:00	58.3	58.3	58.3	97	57.5	1	3	135	0.00	29.501 
01:05	58.3	58.3	58.3	97	57.5	0	2	248	0.00	29.501 
01:10	58.3	58.3	58.3	97	57.5	0	2	248	0.00	29.501 
01:15	58.3	58.3	58.3	97	57.5	0	3	248	0.00	29.493 
01:20	58.3	58.3	58.3	97	57.5	0	1	248	0.01	29.493 
01:25	58.3	58.3	58.3	97	57.5	0	1	248	0.00	29.493 
01:30	58.1	58.1	58.1	97	57.3	0	2	248	0.01	29.481 
01:35	58.1	58.1	58.1	97	57.3	0	2	248	0.00	29.481 
01:40	58.1	58.1	58.1	97	57.3	0	2	248	0.00	29.481 
01:45	58.1	58.1	58.1	97	57.3	0	0	---	0.00	29.473 
01:50	58.0	58.0	58.0	97	57.2	0	1	248	0.00	29.473 
01:55	58.0	58.0	58.0	97	57.2	0	1	248	0.01	29.473 
02:00	58.0	58.0	58.0	97	57.2	0	1	248	0.01	29.482 
02:05	58.1	58.1	58.1	97	57.3	1	3	248	0.02	29.482 
02:10	57.0	57.0	57.0	97	56.2	3	7	270	0.04	29.482 
02:15	55.7	55.7	55.7	96	54.6	2	4	248	0.02	29.486 
02:20	55.1	55.1	55.1	96	54.0	1	4	270	0.01	29.486 
02:25	54.8	54.8	54.8	96	53.7	1	3	248	0.01	29.486 
02:30	54.5	54.5	54.5	97	53.7	1	3	248	0.00	29.472 
02:35	54.2	54.2	54.2	97	53.4	1	3	248	0.01	29.472 
02:40	53.9	53.9	53.9	97	53.1	1	5	270	0.02	29.472 
02:45	53.6	53.6	53.6	97	52.8	2	6	248	0.01	29.481 
02:50	53.5	53.5	53.5	97	52.7	1	3	248	0.01	29.481 
02:55	53.3	53.3	53.3	97	52.5	1	4	248	0.01	29.481 
03:00	53.3	53.3	53.3	97	52.5	1	3	248	0.00	29.456 
03:05	53.2	53.2	53.2	97	52.4	2	7	248	0.02	29.456 
03:10	51.9	51.9	51.9	96	50.8	4	9	270	0.01	29.456 
03:15	50.7	50.7	50.7	97	49.9	4	10	270	0.01	29.477 
03:20	49.6	48.4	49.6	96	48.5	4	10	270	0.01	29.477 
03:25	48.8	48.8	48.8	96	47.7	3	9	248	0.00	29.477 
03:30	48.3	48.3	48.3	96	47.2	2	6	248	0.02	29.465 
03:35	48.0	48.0	48.0	96	46.9	2	7	248	0.02	29.465 
03:40	47.9	47.9	47.9	96	46.8	2	6	248	0.00	29.465 
03:45	47.6	47.6	47.6	96	46.5	2	7	248	0.02	29.466 
03:50	47.4	47.4	47.4	96	46.3	2	4	248	0.01	29.466 
03:55	46.5	44.8	46.5	96	45.4	4	7	270	0.01	29.466 
04:00	46.0	44.2	46.0	96	44.9	4	7	270	0.01	29.463 
04:05	45.7	43.9	45.7	96	44.6	4	8	270	0.02	29.463 
04:10	45.2	43.3	45.2	96	44.1	4	6	270	0.02	29.463 
04:15	45.1	45.1	45.1	96	44.0	3	7	270	0.01	29.468 
04:20	44.8	42.9	44.8	96	43.7	4	6	270	0.02	29.468 
04:25	44.5	42.5	44.5	96	43.4	4	9	270	0.00	29.468 
04:30	44.5	44.5	44.5	96	43.4	2	5	248	0.01	29.470 
04:35	44.3	44.3	44.3	96	43.2	2	7	248	0.01	29.470 
04:40	44.2	44.2	44.2	96	43.1	2	6	248	0.01	29.470 
04:45	44.1	44.1	44.1	96	43.0	3	7	270	0.01	29.470 
04:50	44.1	44.1	44.1	96	43.0	3	7	248	0.01	29.470 
04:55	44.1	44.1	44.1	96	43.0	3	5	248	0.01	29.470 
05:00	43.9	43.9	43.9	96	42.8	2	6	248	0.01	29.494 
05:05	43.8	43.8	43.8	96	42.7	3	6	248	0.01	29.494 
05:10	42.9	39.9	42.9	96	41.8	5	14	270	0.01	29.494 
05:15	42.3	40.0	42.3	96	41.2	4	7	270	0.00	29.500 
05:20	42.1	39.7	42.1	96	41.0	4	7	270	0.00	29.500 
05:25	42.1	42.1	42.1	96	41.0	2	6	248	0.01	29.500 
05:30	42.1	42.1	42.1	96	41.0	3	6	248	0.00	29.486 
05:35	41.9	41.9	41.9	96	40.8	3	6	248	0.00	29.486 
05:40	41.8	41.8	41.8	96	40.7	3	6	248	0.00	29.486 
05:45	41.8	41.8	41.8	96	40.7	2	6	248	0.00	29.487 
05:50	41.6	41.6	41.6	96	40.5	3	6	248	0.01	29.487 
05:55	41.3	38.0	41.3	96	40.2	5	9	270	0.00	29.487 
06:00	41.1	38.6	41.1	96	40.0	4	7	270	0.00	29.500 
06:05	40.8	40.8	40.8	96	39.7	3	6	270	0.00	29.500 
06:10	40.5	40.5	40.5	96	39.5	3	6	270	0.00	29.500 
06:15	40.2	40.2	40.2	96	39.2	3	6	248	0.00	29.494 
06:20	39.9	37.2	39.9	96	38.9	4	7	270	0.00	29.494 
06:25	39.8	37.1	39.8	96	38.8	4	10	248	0.00	29.494 
06:30	39.6	36.9	39.6	96	38.6	4	11	248	0.00	29.502 
06:35	39.5	39.5	39.5	96	38.5	3	7	270	0.00	29.502 
06:40	39.1	36.3	39.1	96	38.1	4	11	248	0.00	29.502 
06:45	38.9	36.0	38.9	95	37.6	4	8	270	0.00	29.517 
06:50	38.8	35.1	38.8	95	37.5	5	14	270	0.00	29.517 
06:55	38.8	35.9	38.8	95	37.5	4	10	270	0.00	29.517 
07:00	38.6	34.8	38.6	95	37.3	5	11	270	0.00	29.527 
07:05	38.5	34.7	38.5	95	37.2	5	11	270	0.00	29.527 
07:10	38.2	34.4	38.2	94	36.6	5	11	270	0.00	29.527 
07:15	38.0	35.0	38.0	93	36.2	4	7	270	0.00	29.537 
07:20	38.0	35.0	38.0	93	36.2	4	9	270	0.00	29.537 
07:25	38.0	35.0	38.0	92	35.9	4	10	270	0.00	29.537 
07:30	37.9	34.9	37.9	91	35.5	4	10	270	0.00	29.548 
07:35	38.0	38.0	38.0	90	35.3	3	8	270	0.00	29.548 
07:40	38.0	38.0	38.0	90	35.3	3	7	270	0.00	29.548 
07:45	38.2	35.2	38.2	89	35.2	4	10	248	0.00	29.552 
07:50	38.2	34.4	38.2	88	35.0	5	12	248	0.00	29.552 
07:55	38.0	35.0	38.0	87	34.5	4	10	270	0.00	29.552 
08:00	38.0	33.4	38.0	85	33.9	6	11	270	0.00	29.554 
08:05	38.0	34.1	38.0	84	33.6	5	11	270	0.00	29.554 
08:10	37.9	34.0	37.9	83	33.2	5	14	270	0.00	29.554 
08:15	37.9	33.3	37.9	81	32.6	6	12	270	0.00	29.569 
08:20	38.0	35.0	38.0	81	32.7	4	9	270	0.00	29.569 
08:25	37.9	34.9	37.9	80	32.3	4	8	270	0.00	29.569 
08:30	37.9	34.0	37.9	80	32.3	5	16	270	0.00	29.571 
08:35	37.9	34.0	37.9	79	32.0	5	13	270	0.00	29.571 
08:40	37.8	33.1	37.8	77	31.2	6	15	270	0.00	29.571 
08:45	37.6	32.9	37.6	75	30.4	6	13	248	0.00	29.581 
08:50	37.8	32.5	37.8	74	30.3	7	18	248	0.00	29.581 
08:55	37.8	33.9	37.8	73	29.9	5	18	270	0.00	29.581 
09:00	37.8	33.9	37.8	73	29.9	5	10	270	0.00	29.583 
09:05	37.8	33.1	37.8	72	29.6	6	12	270	0.00	29.583 
09:10	37.8	33.9	37.8	71	29.3	5	10	270	0.00	29.583 
09:15	37.9	37.9	37.9	72	29.7	3	6	270	0.00	29.582 
09:20	38.0	35.0	38.0	72	29.8	4	8	248	0.00	29.582 
09:25	38.2	35.2	38.2	72	30.0	4	7	270	0.00	29.582 
09:30	38.0	34.1	38.0	69	28.7	5	12	270	0.00	29.584 
09:35	38.0	34.1	38.0	69	28.7	5	10	270	0.00	29.584 
09:40	38.0	33.4	38.0	69	28.7	6	16	270	0.00	29.584 
09:45	38.2	35.2	38.2	70	29.3	4	11	270	0.00	29.586 
09:50	38.2	35.2	38.2	70	29.3	4	12	270	0.00	29.586 
09:55	38.2	35.2	38.2	71	29.6	4	11	248	0.00	29.586 
10:00	38.2	35.2	38.2	71	29.6	4	9	248	0.00	29.589 
10:05	38.3	38.3	38.3	72	30.1	3	8	270	0.00	29.589 
10:10	38.3	35.4	38.3	72	30.1	4	12	248	0.00	29.589 
10:15	38.2	35.2	38.2	72	30.0	4	9	270	0.00	29.596 
10:20	38.3	33.7	38.3	72	30.1	6	14	248	0.00	29.596 
10:25	38.3	35.4	38.3	73	30.4	4	10	248	0.00	29.596 
10:30	38.5	35.6	38.5	73	30.6	4	10	248	0.00	29.600 
10:35	38.5	35.6	38.5	73	30.6	4	9	270	0.00	29.600 
10:40	38.6	35.7	38.6	73	30.7	4	10	248	0.00	29.600 
10:45	38.6	35.7	38.6	72	30.4	4	8	248	0.00	29.613 
10:50	38.6	34.8	38.6	69	29.3	5	14	248	0.00	29.613 
10:55	38.6	34.8	38.6	69	29.3	5	10	248	0.00	29.613 
11:00	38.6	34.1	38.6	68	29.0	6	16	248	0.00	29.620 
11:05	38.6	35.7	38.6	69	29.3	4	11	248	0.00	29.620 
11:10	38.6	35.7	38.6	70	29.7	4	13	248	0.00	29.620 
11:15	38.6	35.7	38.6	70	29.7	4	11	248	0.00	29.630 
11:20	38.6	34.8	38.6	70	29.7	5	10	248	0.00	29.630 
11:25	38.6	34.8	38.6	70	29.7	5	11	248	0.00	29.630 
11:30	38.5	35.6	38.5	71	29.9	4	13	248	0.00	29.630 
11:35	38.5	34.0	38.5	70	29.6	6	17	270	0.00	29.630 
11:40	38.5	34.7	38.5	71	29.9	5	12	248	0.00	29.630 
11:45	38.5	35.6	38.5	72	30.3	4	15	248	0.00	29.630 
11:50	38.6	34.8	38.6	72	30.4	5	14	248	0.00	29.630 
11:55	38.8	35.1	38.8	71	30.2	5	13	248	0.00	29.630 
12:00	38.9	36.0	38.9	70	30.0	4	10	248	0.00	29.629 
12:05	39.1	35.4	39.1	70	30.2	5	13	248	0.00	29.629 
12:10	39.1	36.3	39.1	70	30.2	4	12	248	0.00	29.629 
12:15	39.3	36.5	39.3	70	30.3	4	11	248	0.00	29.632 
12:20	39.8	37.1	39.8	69	30.5	4	11	248	0.00	29.632 
12:25	40.2	36.7	40.2	68	30.5	5	10	248	0.00	29.632 
12:30	40.1	35.9	40.1	66	29.7	6	15	270	0.00	29.631 
12:35	39.8	35.5	39.8	65	29.0	6	14	270	0.00	29.631 
12:40	39.6	35.3	39.6	66	29.2	6	16	270	0.00	29.631 
12:45	39.6	36.0	39.6	66	29.2	5	14	270	0.00	29.636 
12:50	39.5	35.9	39.5	68	29.8	5	12	270	0.00	29.636 
12:55	39.3	35.7	39.3	69	30.0	5	9	270	0.00	29.636 
13:00	39.5	36.7	39.5	69	30.2	4	12	248	0.00	29.633 
13:05	39.6	36.9	39.6	69	30.3	4	14	270	0.00	29.633 
13:10	40.1	40.1	40.1	69	30.8	3	7	248	0.00	29.633 
13:15	40.2	40.2	40.2	66	29.8	3	9	270	0.00	29.638 
13:20	40.2	37.5	40.2	64	29.0	4	11	270	0.00	29.638 
13:25	40.2	37.5	40.2	63	28.6	4	11	248	0.00	29.638 
13:30	39.9	35.6	39.9	62	28.0	6	19	248	0.00	29.638 
13:35	39.6	35.3	39.6	63	28.1	6	14	248	0.00	29.638 
13:40	39.5	34.5	39.5	63	28.0	7	18	248	0.00	29.638 
13:45	39.8	35.5	39.8	64	28.6	6	14	248	0.00	29.645 
13:50	39.9	36.4	39.9	63	28.3	5	12	248	0.00	29.645 
13:55	40.2	37.5	40.2	64	29.0	4	16	248	0.00	29.645 
14:00	40.2	36.7	40.2	63	28.6	5	20	248	0.00	29.647 
14:05	40.2	36.7	40.2	62	28.2	5	14	248	0.00	29.647 
14:10	40.3	35.5	40.3	61	27.9	7	17	270	0.00	29.647 
14:15	40.3	36.1	40.3	61	27.9	6	12	270	0.00	29.660 
14:20	40.3	36.1	40.3	62	28.3	6	13	248	0.00	29.660 
14:25	40.2	35.4	40.2	61	27.8	7	14	270	0.00	29.660 
14:30	40.1	35.9	40.1	62	28.1	6	16	248	0.00	29.668 
14:35	40.1	35.9	40.1	62	28.1	6	13	248	0.00	29.668 
14:40	39.9	35.6	39.9	62	28.0	6	13	270	0.00	29.668 
14:45	39.8	35.5	39.8	62	27.9	6	11	270	0.00	29.682 
14:50	39.8	34.9	39.8	63	28.2	7	15	270	0.00	29.682 
14:55	39.6	34.7	39.6	62	27.7	7	18	248	0.00	29.682 
15:00	39.6	35.3	39.6	64	28.4	6	13	248	0.00	29.697 
15:05	39.5	35.2	39.5	65	28.7	6	15	248	0.00	29.697 
15:10	39.8	36.2	39.8	65	29.0	5	16	248	0.00	29.697 
15:15	40.2	37.5	40.2	65	29.4	4	9	248	0.00	29.703 
15:20	40.6	37.2	40.6	64	29.4	5	15	248	0.00	29.703 
15:25	40.8	38.2	40.8	62	28.8	4	11	248	0.00	29.703 
15:30	40.6	38.0	40.6	62	28.6	4	11	248	0.00	29.701 
15:35	40.2	36.0	40.2	62	28.2	6	14	248	0.00	29.701 
15:40	39.9	36.4	39.9	64	28.7	5	13	248	0.00	29.701 
15:45	39.8	35.5	39.8	65	29.0	6	13	248	0.00	29.701 
15:50	39.8	36.2	39.8	65	29.0	5	11	248	0.00	29.701 
15:55	39.6	36.9	39.6	66	29.2	4	10	248	0.00	29.701 
16:00	39.6	36.0	39.6	67	29.6	5	13	248	0.00	29.703 
16:05	39.6	36.0	39.6	66	29.2	5	14	270	0.00	29.703 
16:10	39.5	35.9	39.5	67	29.5	5	14	248	0.00	29.703 
16:15	39.3	36.5	39.3	68	29.6	4	10	248	0.00	29.713 
16:20	39.3	36.5	39.3	68	29.6	4	12	248	0.00	29.713 
16:25	39.5	35.2	39.5	67	29.5	6	18	248	0.00	29.713 
16:30	39.3	35.7	39.3	67	29.3	5	12	248	0.00	29.714 
16:35	39.3	36.5	39.3	68	29.6	4	9	248	0.00	29.714 
16:40	39.2	34.8	39.2	69	29.9	6	19	248	0.00	29.714 
16:45	38.9	34.4	38.9	70	30.0	6	15	270	0.00	29.724 
16:50	38.9	35.2	38.9	71	30.3	5	12	248	0.00	29.724 
16:55	38.8	35.1	38.8	73	30.9	5	12	248	0.00	29.724 
17:00	38.9	38.9	38.9	75	31.7	2	6	248	0.00	29.729 
17:05	38.9	36.0	38.9	73	31.0	4	12	248	0.00	29.729 
17:10	39.1	36.3	39.1	71	30.5	4	9	248	0.00	29.729 
17:15	39.2	36.4	39.2	69	29.9	4	12	248	0.00	29.730 
17:20	39.1	35.4	39.1	68	29.4	5	13	248	0.00	29.730 
17:25	39.2	35.5	39.2	68	29.5	5	13	248	0.00	29.730 
17:30	39.2	34.8	39.2	67	29.2	6	14	248	0.00	29.739 
17:35	39.2	34.8	39.2	67	29.2	6	12	248	0.00	29.739 
17:40	39.1	34.7	39.1	67	29.1	6	14	270	0.00	29.739 
17:45	39.1	36.3	39.1	69	29.8	4	10	248	0.00	29.745 
17:50	39.1	36.3	39.1	69	29.8	4	11	248	0.00	29.745 
17:55	39.1	35.4	39.1	68	29.4	5	13	248	0.00	29.745 
18:00	39.1	36.3	39.1	67	29.1	4	13	248	0.00	29.754 
18:05	39.1	36.3	39.1	66	28.7	4	11	248	0.00	29.754 
18:10	39.1	35.4	39.1	67	29.1	5	12	248	0.00	29.754 
18:15	39.1	35.4	39.1	67	29.1	5	13	248	0.00	29.767 
18:20	39.1	39.1	39.1	68	29.4	3	6	248	0.00	29.767 
18:25	38.9	38.9	38.9	69	29.6	3	7	248	0.00	29.767 
18:30	38.9	38.9	38.9	69	29.6	3	7	248	0.00	29.772 
18:35	38.8	38.8	38.8	70	29.9	3	7	248	0.00	29.772 
18:40	38.8	35.1	38.8	70	29.9	5	11	248	0.00	29.772 
18:45	38.6	34.8	38.6	71	30.0	5	10	248	0.00	29.785 
18:50	38.6	35.7	38.6	72	30.4	4	11	248	0.00	29.785 
18:55	38.5	34.7	38.5	72	30.3	5	11	248	0.00	29.785 
19:00	38.5	35.6	38.5	72	30.3	4	7	248	0.00	29.790 
19:05	38.5	38.5	38.5	73	30.6	3	7	248	0.00	29.790 
19:10	38.5	38.5	38.5	73	30.6	3	6	248	0.00	29.790 
19:15	38.5	38.5	38.5	73	30.6	3	7	248	0.00	29.791 
19:20	38.5	38.5	38.5	73	30.6	2	6	248	0.00	29.791 
19:25	38.5	38.5	38.5	74	30.9	2	6	248	0.00	29.791 
19:30	38.2	38.2	38.2	76	31.3	3	5	270	0.00	29.803 
19:35	37.8	37.8	37.8	78	31.6	2	6	248	0.00	29.803 
19:40	37.6	37.6	37.6	78	31.4	3	7	270	0.00	29.803 
19:45	37.6	37.6	37.6	78	31.4	3	7	248	0.00	29.808 
19:50	37.6	34.5	37.6	77	31.1	4	10	248	0.00	29.808 
19:55	37.6	37.6	37.6	76	30.7	3	11	248	0.00	29.808 
20:00	37.6	37.6	37.6	76	30.7	3	8	248	0.00	29.811 
20:05	37.6	37.6	37.6	75	30.4	3	7	248	0.00	29.811 
20:10	37.6	37.6	37.6	75	30.4	3	7	248	0.00	29.811 
20:15	37.6	34.5	37.6	75	30.4	4	9	248	0.00	29.818 
20:20	37.6	34.5	37.6	74	30.1	4	7	248	0.00	29.818 
20:25	37.6	37.6	37.6	75	30.4	2	6	248	0.00	29.818 
20:30	37.6	37.6	37.6	75	30.4	3	7	248	0.00	29.825 
20:35	37.6	37.6	37.6	75	30.4	3	9	248	0.00	29.825 
20:40	37.5	37.5	37.5	76	30.6	3	7	248	0.00	29.825 
20:45	37.5	37.5	37.5	77	31.0	3	6	248	0.00	29.837 
20:50	37.3	37.3	37.3	78	31.1	3	7	248	0.00	29.837 
20:55	37.2	37.2	37.2	78	31.0	3	9	270	0.00	29.837 
21:00	37.0	37.0	37.0	78	30.8	2	6	248	0.00	29.841 
21:05	37.0	37.0	37.0	78	30.8	3	7	248	0.00	29.841 
21:10	37.0	37.0	37.0	78	30.8	2	5	248	0.00	29.841 
21:15	36.9	36.9	36.9	78	30.7	3	10	248	0.00	29.844 
21:20	37.0	37.0	37.0	77	30.5	3	7	248	0.00	29.844 
21:25	37.0	37.0	37.0	77	30.5	3	7	248	0.00	29.844 
21:30	37.0	37.0	37.0	76	30.2	3	9	248	0.00	29.847 
21:35	37.0	37.0	37.0	76	30.2	3	8	248	0.00	29.847 
21:40	36.9	32.8	36.9	77	30.4	5	16	248	0.00	29.847 
21:45	36.6	36.6	36.6	78	30.4	2	6	248	0.00	29.854 
21:50	36.5	36.5	36.5	78	30.3	3	6	248	0.00	29.854 
21:55	36.5	36.5	36.5	79	30.6	3	9	248	0.00	29.854 
22:00	36.6	36.6	36.6	79	30.7	3	6	248	0.00	29.855 
22:05	36.6	36.6	36.6	78	30.4	3	7	248	0.00	29.855 
22:10	36.6	36.6	36.6	79	30.7	2	5	248	0.00	29.855 
22:15	36.6	36.6	36.6	79	30.7	3	7	248	0.00	29.856 
22:20	36.6	36.6	36.6	80	31.0	2	6	248	0.00	29.856 
22:25	36.5	36.5	36.5	80	30.9	2	7	248	0.00	29.856 
22:30	36.5	36.5	36.5	81	31.2	3	7	248	0.00	29.855 
22:35	36.5	36.5	36.5	80	30.9	2	5	248	0.00	29.855 
22:40	36.5	36.5	36.5	80	30.9	3	11	248	0.00	29.855 
22:45	36.6	36.6	36.6	79	30.7	3	7	248	0.00	29.855 
22:50	36.6	36.6	36.6	79	30.7	2	7	248	0.00	29.855 
22:55	36.6	36.6	36.6	79	30.7	2	7	248	0.00	29.855 
23:00	36.8	36.8	36.8	79	30.9	2	7	248	0.00	29.856 
23:05	36.8	36.8	36.8	79	30.9	2	7	248	0.00	29.856 
23:10	36.8	36.8	36.8	79	30.9	3	7	248	0.00	29.856 
23:15	36.8	36.8	36.8	79	30.9	3	8	248	0.00	29.860 
23:20	36.8	36.8	36.8	79	30.9	2	6	248	0.00	29.860 
23:25	36.8	36.8	36.8	78	30.6	3	7	248	0.00	29.860 
23:30	36.8	33.6	36.8	77	30.3	4	11	248	0.00	29.858 
23:35	36.8	33.6	36.8	75	29.6	4	9	270	0.00	29.858 
23:40	36.8	36.8	36.8	75	29.6	2	5	248	0.00	29.858 
23:45	36.8	36.8	36.8	75	29.6	3	8	248	0.00	29.866 
23:50	36.8	36.8	36.8	75	29.6	3	10	248	0.00	29.866 
23:55	36.8	36.8	36.8	75	29.6	2	6	248	0.00	29.866 

CoCoRaHS
IN-AL-39
A2 Web Hosting
Creative Commons License
GoDaddy
search engine by freefind advanced

loaded 2018-11-20 14:38:34 • last modified 2010-11-18 10:43:29
Privacy PolicyDisclaimer
• wx.awcolley.com is powered by PmWiki v.2002016 •
• all content (unless otherwise noted) © 2018 A W Colley